Time;durP1;ratioP1;P1;durP2;ratioP2;P2;SDS_P1;SDS_P2;PMS_P1;PMS_P2;Temp;Humidity;BMP_temperature;BMP_pressure;BME280_temperature;BME280_humidity;BME280_pressure;Samples;Min_cycle;Max_cycle;Signal;HPM_P1;HPM_P2
2021/01/29 00:00:25;;;;;;;8.10;2.70;;;;;;;10.58;86.61;97580.69;4940607;29;20291;-80
2021/01/29 00:02:53;;;;;;;3.00;2.25;;;;;;;10.60;86.20;97579.56;4976936;28;20232;-78
2021/01/29 00:05:22;;;;;;;4.35;2.90;;;;;;;10.54;86.87;97581.97;4969241;28;20210;-79
2021/01/29 00:07:48;;;;;;;3.33;2.40;;;;;;;10.50;87.38;97578.69;4959579;28;20230;-79
2021/01/29 00:10:15;;;;;;;2.35;2.00;;;;;;;10.49;87.60;97579.69;4939440;28;20247;-81
2021/01/29 00:12:41;;;;;;;5.43;2.35;;;;;;;10.38;88.38;97569.03;4965295;28;20235;-80
2021/01/29 00:15:12;;;;;;;7.78;2.90;;;;;;;10.42;88.54;97558.88;4966433;28;20251;-80
2021/01/29 00:17:40;;;;;;;4.07;2.38;;;;;;;10.39;88.96;97564.50;4955460;28;20230;-79
2021/01/29 00:20:11;;;;;;;5.18;2.33;;;;;;;10.33;89.43;97554.31;4956628;28;20248;-79
2021/01/29 00:22:37;;;;;;;3.90;2.28;;;;;;;10.34;89.65;97551.50;4955199;28;20220;-80
2021/01/29 00:25:10;;;;;;;6.82;2.67;;;;;;;10.38;89.58;97546.69;4937156;28;20231;-78
2021/01/29 00:27:37;;;;;;;3.55;2.90;;;;;;;10.36;89.76;97545.97;4970341;28;20231;-80
2021/01/29 00:30:05;;;;;;;5.47;2.45;;;;;;;10.35;90.27;97534.38;4956342;28;20227;-79
2021/01/29 00:32:31;;;;;;;4.30;2.80;;;;;;;10.35;90.50;97525.47;4943667;28;20253;-80
2021/01/29 00:34:58;;;;;;;3.90;2.90;;;;;;;10.33;91.04;97509.50;4953465;29;20208;-80
2021/01/29 00:37:24;;;;;;;3.90;3.03;;;;;;;10.34;91.24;97518.41;4969400;28;20224;-80
2021/01/29 00:39:50;;;;;;;5.47;2.67;;;;;;;10.31;91.71;97508.78;4967977;28;20274;-80
2021/01/29 00:42:17;;;;;;;3.55;2.30;;;;;;;10.25;92.21;97503.09;4965805;28;20243;-80
2021/01/29 00:44:43;;;;;;;5.43;2.85;;;;;;;10.22;92.66;97503.41;4983329;28;20189;-79
2021/01/29 00:47:09;;;;;;;3.08;2.60;;;;;;;10.26;92.75;97504.81;4967493;28;20263;-79
2021/01/29 00:49:35;;;;;;;3.40;2.90;;;;;;;10.28;92.72;97508.22;4967060;28;20243;-79
2021/01/29 00:52:01;;;;;;;3.75;2.55;;;;;;;10.25;92.80;97495.91;4952248;29;20255;-78
2021/01/29 00:54:27;;;;;;;7.25;2.92;;;;;;;10.23;92.85;97480.91;4975780;28;20243;-80
2021/01/29 00:56:53;;;;;;;9.82;2.97;;;;;;;10.12;93.96;97475.66;4985848;28;20247;-78
2021/01/29 00:59:20;;;;;;;2.88;2.50;;;;;;;10.20;93.96;97465.94;4974470;28;20184;-80
2021/01/29 01:02:01;;;;;;;3.97;2.95;;;;;;;10.16;94.04;97458.28;4975660;28;20223;-81
2021/01/29 01:04:27;;;;;;;5.20;3.17;;;;;;;10.20;94.22;97451.63;4965843;28;20220;-82
2021/01/29 01:06:53;;;;;;;3.15;2.60;;;;;;;10.26;93.65;97446.56;4978325;28;20271;-81
2021/01/29 01:09:39;;;;;;;5.65;3.00;;;;;;;10.47;92.62;97446.47;4980476;28;20236;-81
2021/01/29 01:12:08;;;;;;;3.35;2.58;;;;;;;10.42;92.56;97435.28;4970002;29;20275;-83
2021/01/29 01:14:36;;;;;;;2.83;2.00;;;;;;;10.38;92.56;97423.09;4954450;28;20200;-83
2021/01/29 01:17:24;;;;;;;4.60;1.90;;;;;;;10.38;93.04;97417.72;4945704;29;20223;-81
2021/01/29 01:20:07;;;;;;;2.38;1.70;;;;;;;10.36;92.49;97414.34;4960388;29;20251;-83
2021/01/29 01:22:33;;;;;;;3.03;1.85;;;;;;;10.51;92.12;97416.47;4970845;28;20298;-80
2021/01/29 01:25:11;;;;;;;3.75;1.90;;;;;;;10.47;91.96;97406.16;4975357;28;20203;-83
2021/01/29 01:27:38;;;;;;;3.35;1.98;;;;;;;10.50;92.58;97413.91;4951969;28;20593;-83
2021/01/29 01:30:39;;;;;;;2.63;1.63;;;;;;;10.50;92.92;97393.28;4913159;29;20758;-84
2021/01/29 01:33:13;;;;;;;1.50;1.40;;;;;;;10.61;91.13;97394.97;4944433;29;20219;-82
2021/01/29 01:35:58;;;;;;;1.60;1.40;;;;;;;10.54;91.00;97381.25;4951367;28;20391;-83
2021/01/29 01:38:33;;;;;;;1.30;1.15;;;;;;;10.55;91.04;97379.41;4951627;29;20730;-83
2021/01/29 01:41:00;;;;;;;4.63;1.50;;;;;;;10.44;91.42;97374.19;4959537;29;20208;-81
2021/01/29 01:43:34;;;;;;;1.20;1.05;;;;;;;10.37;91.63;97365.84;4956090;28;20603;-82
2021/01/29 01:46:20;;;;;;;1.45;1.23;;;;;;;10.37;91.92;97355.13;4957165;28;20301;-81
2021/01/29 01:49:13;;;;;;;1.23;1.10;;;;;;;10.49;92.22;97351.28;4988077;28;20270;-82
2021/01/29 01:51:48;;;;;;;1.50;1.10;;;;;;;10.47;91.63;97341.66;4973631;28;20296;-83
2021/01/29 01:54:41;;;;;;;2.95;0.90;;;;;;;10.33;92.74;97337.56;4971359;28;20227;-81
2021/01/29 01:57:10;;;;;;;1.00;0.80;;;;;;;10.38;92.37;97327.25;4968555;28;20236;-82
2021/01/29 02:00:23;;;;;;;1.10;0.90;;;;;;;10.40;92.15;97313.69;4972044;28;20254;-81
2021/01/29 02:03:15;;;;;;;1.20;0.88;;;;;;;10.51;91.90;97321.56;4951734;28;21532;-82
2021/01/29 02:05:54;;;;;;;1.40;1.20;;;;;;;10.44;92.38;97305.19;4968974;28;20240;-81
2021/01/29 02:08:47;;;;;;;1.20;0.90;;;;;;;10.53;91.84;97298.09;4991153;28;20227;-80
2021/01/29 02:11:20;;;;;;;1.00;0.80;;;;;;;10.50;91.98;97291.19;4965854;29;20196;-82
2021/01/29 02:14:05;;;;;;;1.20;1.00;;;;;;;10.56;91.91;97271.78;4970054;29;20250;-82
2021/01/29 02:16:57;;;;;;;1.10;0.95;;;;;;;10.49;91.67;97269.81;4969084;29;20315;-81
2021/01/29 02:20:21;;;;;;;1.20;1.00;;;;;;;10.52;91.55;97265.00;4972253;28;20204;-82
2021/01/29 02:23:20;;;;;;;1.13;1.00;;;;;;;10.55;91.37;97264.72;4964148;28;20220;-83
2021/01/29 02:26:24;;;;;;;2.95;1.30;;;;;;;10.53;91.41;97249.75;4984416;28;20226;-84
2021/01/29 02:29:14;;;;;;;1.30;1.10;;;;;;;10.55;91.02;97253.13;4945003;29;20250;-85
2021/01/29 02:32:18;;;;;;;2.05;1.17;;;;;;;10.54;90.97;97243.38;4971328;28;20247;-85
2021/01/29 02:35:20;;;;;;;2.25;1.33;;;;;;;10.57;90.79;97235.88;4957764;28;20243;-84
2021/01/29 02:38:20;;;;;;;1.40;1.30;;;;;;;10.62;90.99;97233.59;4954874;28;20299;-85
2021/01/29 02:40:55;;;;;;;1.33;1.15;;;;;;;10.58;91.69;97232.19;4956539;28;20219;-84
2021/01/29 02:43:56;;;;;;;1.75;1.50;;;;;;;10.58;91.95;97225.94;4971830;28;20196;-84
2021/01/29 02:46:52;;;;;;;1.45;1.23;;;;;;;10.52;92.03;97215.78;4956287;28;20231;-83
2021/01/29 02:49:37;;;;;;;2.08;1.42;;;;;;;10.51;92.62;97209.56;4955652;28;20250;-84
2021/01/29 02:53:07;;;;;;;2.35;1.50;;;;;;;10.56;92.68;97193.88;4964635;28;20317;-82
2021/01/29 02:56:17;;;;;;;1.50;1.30;;;;;;;10.57;92.14;97189.31;4954182;29;20227;-82
2021/01/29 02:59:40;;;;;;;1.70;1.48;;;;;;;10.59;92.01;97179.28;4961875;29;20232;-82
2021/01/29 03:02:47;;;;;;;1.10;1.00;;;;;;;10.59;91.54;97165.84;4940573;29;20236;-84
2021/01/29 03:05:40;;;;;;;1.50;1.27;;;;;;;10.59;91.75;97165.84;4933191;28;20287;-83
2021/01/29 03:08:09;;;;;;;1.33;1.23;;;;;;;10.61;91.09;97166.53;4970877;28;20258;-83
2021/01/29 03:11:19;;;;;;;1.70;1.35;;;;;;;10.63;90.73;97148.41;4954998;28;20247;-85
2021/01/29 03:14:33;;;;;;;4.00;1.85;;;;;;;10.67;90.91;97134.53;4968235;28;20740;-81
2021/01/29 03:17:25;;;;;;;2.10;1.90;;;;;;;10.61;91.26;97123.53;4960261;28;20222;-84
2021/01/29 03:20:24;;;;;;;2.45;1.73;;;;;;;10.64;91.70;97117.84;4960567;29;20222;-84
2021/01/29 03:23:15;;;;;;;2.50;2.00;;;;;;;10.62;91.69;97118.03;4963261;29;20231;-84
2021/01/29 03:26:06;;;;;;;2.00;1.80;;;;;;;10.63;91.70;97106.28;4963695;29;20272;-83
2021/01/29 03:28:57;;;;;;;3.30;1.80;;;;;;;10.62;91.38;97109.09;4980162;28;20230;-86
2021/01/29 03:31:47;;;;;;;2.97;1.80;;;;;;;10.61;91.25;97100.19;4967343;28;20234;-83
2021/01/29 03:34:40;;;;;;;2.00;1.80;;;;;;;10.61;90.97;97094.00;4974054;28;20238;-82
2021/01/29 03:37:33;;;;;;;2.95;2.20;;;;;;;10.65;90.54;97088.16;4973992;28;20267;-82
2021/01/29 03:40:19;;;;;;;1.63;1.52;;;;;;;10.67;89.92;97077.25;4955333;28;20614;-83
2021/01/29 03:43:32;;;;;;;2.25;1.58;;;;;;;10.61;90.05;97059.88;4963390;28;20250;-86
2021/01/29 03:46:47;;;;;;;3.05;1.80;;;;;;;10.66;89.86;97049.53;4955663;28;20222;-85
2021/01/29 03:50:04;;;;;;;1.60;1.50;;;;;;;10.68;89.20;97041.31;4951827;28;20785;-83
2021/01/29 03:53:31;;;;;;;1.55;1.45;;;;;;;10.65;89.33;97036.22;4964752;28;20223;-83
2021/01/29 03:56:30;;;;;;;2.13;1.40;;;;;;;10.63;88.75;97025.66;4952122;29;20230;-83
2021/01/29 03:59:28;;;;;;;1.75;1.40;;;;;;;10.58;89.25;97021.72;4953065;29;20337;-84
2021/01/29 04:02:25;;;;;;;1.60;1.40;;;;;;;10.64;89.03;97015.75;4950981;29;20231;-82
2021/01/29 04:05:22;;;;;;;2.05;1.85;;;;;;;10.63;89.36;97011.38;4943024;28;20736;-83
2021/01/29 04:08:14;;;;;;;1.67;1.27;;;;;;;10.66;89.13;97008.41;4958151;28;20266;-83
2021/01/29 04:11:03;;;;;;;2.17;1.00;;;;;;;10.67;89.14;97007.38;4967975;28;20295;-84
2021/01/29 04:14:04;;;;;;;1.27;1.15;;;;;;;10.61;89.69;96999.94;4924951;28;20778;-84
2021/01/29 04:16:38;;;;;;;1.50;1.40;;;;;;;10.64;90.19;96994.25;4951986;28;20594;-85
2021/01/29 04:19:13;;;;;;;1.33;1.20;;;;;;;10.58;90.77;96986.78;4970161;28;20224;-84
2021/01/29 04:21:47;;;;;;;1.55;1.38;;;;;;;10.52;91.20;96968.59;4953395;28;20849;-84
2021/01/29 04:24:21;;;;;;;1.30;1.02;;;;;;;10.56;91.51;96965.47;4978184;23;20238;-79
2021/01/29 04:26:53;;;;;;;1.05;0.80;;;;;;;10.51;91.10;96980.34;4958986;28;20222;-79
2021/01/29 04:29:30;;;;;;;1.40;1.00;;;;;;;10.51;91.70;96956.16;4971080;28;20207;-79
2021/01/29 04:32:01;;;;;;;1.33;0.80;;;;;;;10.42;92.26;96947.16;4970651;28;20214;-79
2021/01/29 04:34:32;;;;;;;1.20;0.90;;;;;;;10.40;92.60;96943.78;4964829;28;20232;-79
2021/01/29 04:37:04;;;;;;;1.10;0.80;;;;;;;10.46;92.29;96936.97;4952216;28;20234;-79
2021/01/29 04:39:35;;;;;;;1.10;0.80;;;;;;;10.49;91.98;96923.22;4961293;29;20287;-79
2021/01/29 04:42:15;;;;;;;1.85;0.90;;;;;;;10.51;91.64;96892.53;4962409;28;20224;-79
2021/01/29 04:44:57;;;;;;;1.00;0.80;;;;;;;10.52;91.59;96869.19;4960071;28;20346;-80
2021/01/29 04:47:30;;;;;;;1.00;0.70;;;;;;;10.50;91.05;96890.00;4955154;28;20215;-80
2021/01/29 04:49:56;;;;;;;0.95;0.70;;;;;;;10.48;91.35;96874.00;4938218;29;20224;-79
2021/01/29 04:53:01;;;;;;;3.83;0.88;;;;;;;10.52;90.92;96883.47;4952060;28;20314;-79
2021/01/29 04:55:42;;;;;;;1.45;0.85;;;;;;;10.57;90.38;96893.75;4941391;29;20188;-80
2021/01/29 04:58:15;;;;;;;1.10;0.80;;;;;;;10.57;90.78;96873.09;4936567;28;20232;-79
2021/01/29 05:01:35;;;;;;;1.02;0.70;;;;;;;10.55;90.73;96866.19;4973500;28;20262;-79
2021/01/29 05:04:51;;;;;;;1.55;0.68;;;;;;;10.57;91.07;96858.81;4978573;28;20255;-79
2021/01/29 05:07:57;;;;;;;1.40;0.80;;;;;;;10.50;91.26;96852.38;4942078;28;20311;-79
2021/01/29 05:11:08;;;;;;;0.90;0.60;;;;;;;10.55;91.36;96847.38;4969107;28;20749;-79
2021/01/29 05:13:40;;;;;;;1.00;0.70;;;;;;;10.58;91.05;96847.91;4966859;28;20726;-80
2021/01/29 05:16:46;;;;;;;1.00;0.70;;;;;;;10.62;91.05;96841.25;4965965;28;20386;-79
2021/01/29 05:19:36;;;;;;;2.28;0.80;;;;;;;10.64;91.14;96828.50;4963973;29;20699;-80
2021/01/29 05:22:14;;;;;;;1.00;0.70;;;;;;;10.62;91.37;96835.88;4951862;28;20651;-79
2021/01/29 05:25:02;;;;;;;0.90;0.60;;;;;;;10.63;91.45;96842.06;4955910;28;20230;-79
2021/01/29 05:27:31;;;;;;;1.13;0.70;;;;;;;10.59;91.52;96840.72;4982468;28;20235;-80
2021/01/29 05:30:18;;;;;;;1.10;0.70;;;;;;;10.60;91.39;96832.47;4965384;28;20224;-79
2021/01/29 05:33:11;;;;;;;1.00;0.60;;;;;;;10.63;90.64;96815.19;4962881;28;20242;-79
2021/01/29 05:35:50;;;;;;;1.25;0.60;;;;;;;10.67;89.38;96827.34;4977934;28;20195;-79
2021/01/29 05:38:38;;;;;;;2.28;1.02;;;;;;;10.73;86.76;96850.91;4958959;29;20246;-80
2021/01/29 05:41:13;;;;;;;1.33;0.80;;;;;;;10.68;84.21;96850.50;4956640;29;20617;-79
2021/01/29 05:44:20;;;;;;;1.65;0.70;;;;;;;10.58;83.73;96857.81;4968615;28;20228;-80
2021/01/29 05:46:56;;;;;;;1.80;1.70;;;;;;;10.46;84.33;96845.66;4950087;28;20230;-80
2021/01/29 05:49:25;;;;;;;1.00;0.70;;;;;;;10.39;84.40;96872.25;4938459;28;20220;-80
2021/01/29 05:52:08;;;;;;;1.00;0.70;;;;;;;10.35;83.45;96875.41;4971534;28;20228;-80
2021/01/29 05:54:56;;;;;;;1.30;1.00;;;;;;;10.28;82.51;96885.09;4960534;28;20219;-79
2021/01/29 05:58:00;;;;;;;1.27;0.88;;;;;;;10.21;81.23;96910.88;4962112;28;20235;-80
2021/01/29 06:00:47;;;;;;;1.00;0.70;;;;;;;10.12;79.92;96925.19;4951354;28;20219;-80
2021/01/29 06:03:35;;;;;;;1.00;0.70;;;;;;;10.03;80.43;96923.38;4949745;28;20220;-79
2021/01/29 06:06:29;;;;;;;1.00;0.70;;;;;;;9.96;79.25;96928.50;4966518;28;20212;-79
2021/01/29 06:09:17;;;;;;;1.10;0.70;;;;;;;9.92;80.45;96948.59;4961830;28;20204;-78
2021/01/29 06:11:52;;;;;;;1.10;0.75;;;;;;;9.87;80.40;96942.81;4961568;28;20196;-79
2021/01/29 06:14:27;;;;;;;1.00;0.70;;;;;;;9.83;79.62;96954.00;4976303;28;20216;-78
2021/01/29 06:17:37;;;;;;;1.65;0.80;;;;;;;9.85;80.21;96957.38;4965115;29;20247;-79
2021/01/29 06:20:47;;;;;;;1.08;0.80;;;;;;;9.76;80.08;96958.28;4975683;28;20243;-78
2021/01/29 06:23:38;;;;;;;1.52;0.93;;;;;;;9.73;80.28;96950.50;4954618;28;20732;-79
2021/01/29 06:26:29;;;;;;;1.50;0.82;;;;;;;9.69;80.48;96981.31;4954354;28;20228;-79
2021/01/29 06:29:11;;;;;;;2.20;1.08;;;;;;;9.67;80.86;96978.78;4936015;29;20288;-79
2021/01/29 06:31:51;;;;;;;1.00;0.70;;;;;;;9.59;80.95;96964.41;4951221;29;20715;-79
2021/01/29 06:34:57;;;;;;;1.40;1.00;;;;;;;9.57;81.30;96969.91;4953418;28;20242;-79
2021/01/29 06:37:48;;;;;;;1.40;0.80;;;;;;;9.59;81.36;96962.59;4952733;28;20212;-79
2021/01/29 06:40:51;;;;;;;1.08;0.77;;;;;;;9.58;81.30;96968.09;4954446;28;20243;-79
2021/01/29 06:43:40;;;;;;;2.88;0.77;;;;;;;9.64;81.23;96972.88;4941172;29;20224;-80
2021/01/29 06:46:29;;;;;;;1.10;0.70;;;;;;;9.60;81.24;96958.91;4954250;28;20234;-80
2021/01/29 06:49:14;;;;;;;1.20;0.90;;;;;;;9.65;80.76;96974.56;4961884;28;20247;-80
2021/01/29 06:51:49;;;;;;;1.30;1.05;;;;;;;9.66;80.93;96971.75;4962413;28;20287;-80
2021/01/29 06:54:38;;;;;;;1.40;0.95;;;;;;;9.71;80.53;96976.66;4964168;28;20273;-81
2021/01/29 06:57:09;;;;;;;1.75;0.93;;;;;;;9.73;80.77;96963.94;4957984;28;20230;-80
2021/01/29 06:59:35;;;;;;;1.10;0.75;;;;;;;9.73;80.61;96980.03;4958877;28;20200;-80
2021/01/29 07:02:19;;;;;;;1.47;1.00;;;;;;;9.72;81.56;96986.41;4989783;28;20228;-80
2021/01/29 07:04:58;;;;;;;3.05;0.90;;;;;;;9.65;82.49;96979.94;4970093;28;20475;-80
2021/01/29 07:07:58;;;;;;;2.95;1.25;;;;;;;9.61;83.68;96994.63;4963091;28;20227;-80
2021/01/29 07:10:52;;;;;;;1.60;1.10;;;;;;;9.61;83.97;96994.63;4970896;28;20219;-80
2021/01/29 07:13:37;;;;;;;1.60;1.02;;;;;;;9.62;84.34;96994.47;4953391;28;20315;-80
2021/01/29 07:16:18;;;;;;;1.20;1.10;;;;;;;9.57;84.75;96993.25;4954150;28;20255;-81
2021/01/29 07:19:20;;;;;;;1.80;0.90;;;;;;;9.64;85.17;96997.84;4951174;28;20217;-80
2021/01/29 07:22:10;;;;;;;2.13;0.85;;;;;;;9.50;86.10;96989.44;4951284;28;20298;-80
2021/01/29 07:25:07;;;;;;;1.30;0.93;;;;;;;9.48;87.17;97003.00;4954082;28;20240;-80
2021/01/29 07:27:45;;;;;;;2.92;1.08;;;;;;;9.41;87.88;96995.66;4953690;28;20451;-80
2021/01/29 07:30:49;;;;;;;2.85;1.20;;;;;;;9.43;88.15;97005.25;4953998;29;20231;-80
2021/01/29 07:33:32;;;;;;;1.95;1.20;;;;;;;9.45;88.26;97005.94;4951223;28;20216;-79
2021/01/29 07:36:45;;;;;;;1.60;1.30;;;;;;;9.50;87.63;97006.38;4969109;28;20216;-80
2021/01/29 07:39:32;;;;;;;1.45;1.17;;;;;;;9.55;86.85;97013.97;4959370;28;20232;-80
2021/01/29 07:42:22;;;;;;;4.93;1.65;;;;;;;9.64;85.71;97015.81;4961683;28;20708;-79
2021/01/29 07:45:16;;;;;;;4.65;1.23;;;;;;;9.66;84.94;97017.34;4962813;28;20225;-79
2021/01/29 07:48:02;;;;;;;2.30;1.50;;;;;;;9.74;84.60;97024.66;4966149;28;20235;-80
2021/01/29 07:50:34;;;;;;;2.45;1.30;;;;;;;9.79;83.80;97030.44;4950211;28;20196;-80
2021/01/29 07:53:14;;;;;;;2.92;1.60;;;;;;;9.84;84.15;97026.31;4955447;28;20213;-79
2021/01/29 07:55:59;;;;;;;1.60;1.30;;;;;;;9.83;83.79;97034.53;4967121;28;20203;-78
2021/01/29 07:58:35;;;;;;;1.55;1.10;;;;;;;9.81;84.01;97036.50;4962485;28;20243;-79
2021/01/29 08:01:34;;;;;;;4.10;1.30;;;;;;;9.83;84.28;97042.56;4974258;28;20223;-80
2021/01/29 08:04:26;;;;;;;3.92;1.33;;;;;;;9.82;84.37;97038.22;4952519;28;20277;-81
2021/01/29 08:07:24;;;;;;;2.00;1.10;;;;;;;9.87;82.82;97035.91;4951862;29;20223;-81
2021/01/29 08:09:59;;;;;;;1.50;1.20;;;;;;;9.93;82.48;97038.00;4953176;28;20239;-80
2021/01/29 08:12:29;;;;;;;4.05;1.35;;;;;;;9.98;81.29;97043.78;4953125;29;20748;-81
2021/01/29 08:15:01;;;;;;;3.03;1.30;;;;;;;10.07;79.91;97056.34;4947511;28;20314;-79
2021/01/29 08:18:07;;;;;;;2.40;1.52;;;;;;;10.12;78.89;97068.34;4953456;28;20199;-79
2021/01/29 08:20:45;;;;;;;2.53;1.15;;;;;;;10.22;77.50;97079.06;4955431;28;20667;-79
2021/01/29 08:23:32;;;;;;;3.22;1.42;;;;;;;10.23;76.74;97070.84;4945908;28;20259;-80
2021/01/29 08:26:23;;;;;;;2.17;1.23;;;;;;;10.32;76.31;97078.00;4966433;28;20236;-80
2021/01/29 08:29:16;;;;;;;3.45;1.25;;;;;;;10.37;76.24;97088.31;4948792;29;20223;-81
2021/01/29 08:32:36;;;;;;;3.78;1.45;;;;;;;10.38;75.75;97081.94;4913771;29;20228;-80
2021/01/29 08:35:30;;;;;;;2.85;1.90;;;;;;;10.45;75.50;97091.94;4967385;28;20231;-80
2021/01/29 08:38:22;;;;;;;2.42;1.58;;;;;;;10.45;75.23;97086.56;4959679;28;20224;-84
2021/01/29 08:41:06;;;;;;;2.00;1.48;;;;;;;10.55;74.14;97099.97;4968631;28;20230;-80
2021/01/29 08:44:00;;;;;;;3.25;1.60;;;;;;;10.54;74.02;97100.97;4948948;29;20239;-82
2021/01/29 08:46:38;;;;;;;4.65;1.70;;;;;;;10.59;74.29;97098.69;4950690;28;20231;-82
2021/01/29 08:49:24;;;;;;;2.63;1.70;;;;;;;10.60;73.23;97105.72;4952246;28;20259;-83
2021/01/29 08:52:33;;;;;;;3.97;1.65;;;;;;;10.62;73.20;97103.72;4956931;28;20223;-80
2021/01/29 08:55:24;;;;;;;2.80;1.70;;;;;;;10.71;72.63;97111.75;4948812;28;20242;-79
2021/01/29 08:58:09;;;;;;;4.07;2.00;;;;;;;10.74;72.22;97118.66;4954628;29;20284;-80
2021/01/29 09:00:36;;;;;;;5.38;2.30;;;;;;;10.75;72.43;97109.59;4957325;28;20234;-80
2021/01/29 09:03:23;;;;;;;3.50;1.40;;;;;;;10.69;72.45;97115.56;4955432;28;20236;-81
2021/01/29 09:06:02;;;;;;;4.68;1.70;;;;;;;10.65;72.55;97120.41;4954378;28;20223;-81
2021/01/29 09:08:30;;;;;;;3.70;1.90;;;;;;;10.71;72.11;97118.94;4958665;28;20203;-79
2021/01/29 09:11:05;;;;;;;5.00;2.50;;;;;;;10.67;72.00;97129.16;4971828;28;20203;-83
2021/01/29 09:13:37;;;;;;;3.83;1.65;;;;;;;10.86;71.97;97136.28;4955534;28;20316;-81
2021/01/29 09:16:09;;;;;;;13.90;2.60;;;;;;;10.85;71.74;97134.59;4954504;28;20748;-81
2021/01/29 09:19:02;;;;;;;5.82;2.17;;;;;;;10.68;72.11;97146.13;4956989;28;20266;-82
2021/01/29 09:22:07;;;;;;;4.38;2.42;;;;;;;10.55;72.84;97154.56;4939171;29;20219;-80
2021/01/29 09:24:55;;;;;;;4.85;2.10;;;;;;;10.60;74.04;97159.47;4905256;29;20224;-80
2021/01/29 09:27:44;;;;;;;3.75;2.15;;;;;;;10.45;76.02;97172.53;4955132;28;20239;-79
2021/01/29 09:30:58;;;;;;;6.75;2.60;;;;;;;10.42;75.36;97156.69;4965502;28;20227;-80
2021/01/29 09:33:32;;;;;;;6.43;2.22;;;;;;;10.34;74.55;97163.81;4936872;28;20235;-79
2021/01/29 09:36:03;;;;;;;7.65;2.08;;;;;;;10.35;74.09;97166.34;4960721;29;20223;-79
2021/01/29 09:38:34;;;;;;;3.53;2.00;;;;;;;10.50;72.46;97170.28;4963233;28;20193;-80
2021/01/29 09:41:24;;;;;;;4.55;2.53;;;;;;;10.60;72.47;97168.38;4984021;28;20173;-79
2021/01/29 09:43:55;;;;;;;6.40;2.40;;;;;;;10.83;70.57;97167.00;4944908;28;20618;-82
2021/01/29 09:46:34;;;;;;;3.78;1.80;;;;;;;10.84;69.74;97173.19;4954905;28;20227;-80
2021/01/29 09:49:10;;;;;;;3.95;2.25;;;;;;;10.90;69.07;97188.75;4958079;28;20262;-83
2021/01/29 09:51:50;;;;;;;5.47;2.42;;;;;;;10.91;68.15;97175.16;4957329;28;20231;-82
2021/01/29 09:54:30;;;;;;;5.47;2.00;;;;;;;10.92;68.35;97178.69;4956069;28;20315;-84
2021/01/29 09:57:01;;;;;;;6.78;3.00;;;;;;;10.96;68.37;97189.00;4971254;28;20227;-82
2021/01/29 09:59:39;;;;;;;3.67;1.92;;;;;;;10.93;66.91;97180.38;4952828;28;20242;-82
2021/01/29 10:02:15;;;;;;;10.45;2.13;;;;;;;11.01;67.84;97191.25;4971077;28;20211;-82
2021/01/29 10:05:29;;;;;;;3.45;1.80;;;;;;;11.01;67.43;97202.00;4948647;28;20232;-81
2021/01/29 10:08:05;;;;;;;3.88;2.40;;;;;;;10.91;67.57;97203.91;4994371;28;20230;-80
2021/01/29 10:10:47;;;;;;;4.90;2.30;;;;;;;10.85;68.83;97212.56;4993596;28;20226;-78
2021/01/29 10:13:36;;;;;;;4.22;1.92;;;;;;;10.64;72.51;97207.41;4988544;28;20235;-78
2021/01/29 10:16:22;;;;;;;3.70;2.03;;;;;;;10.41;74.30;97215.97;4965745;28;20223;-81
2021/01/29 10:19:00;;;;;;;3.05;1.63;;;;;;;10.32;74.85;97208.78;4964967;28;20228;-80
2021/01/29 10:21:59;;;;;;;3.80;2.10;;;;;;;10.46;74.75;97201.09;4963043;29;20308;-81
2021/01/29 10:24:38;;;;;;;6.25;2.55;;;;;;;10.54;74.87;97200.38;4934685;28;20232;-79
2021/01/29 10:27:23;;;;;;;6.15;2.22;;;;;;;10.44;74.46;97213.84;4955929;28;20231;-80
2021/01/29 10:30:01;;;;;;;4.65;2.30;;;;;;;10.42;74.26;97204.22;4956114;29;20216;-79
2021/01/29 10:32:33;;;;;;;7.65;2.20;;;;;;;10.48;73.26;97203.66;4956260;28;20582;-81
2021/01/29 10:35:07;;;;;;;8.88;2.15;;;;;;;10.61;72.52;97201.47;4963330;29;20302;-80
2021/01/29 10:37:46;;;;;;;6.50;2.30;;;;;;;10.81;71.33;97211.16;4962948;28;20238;-80
2021/01/29 10:41:00;;;;;;;5.05;2.67;;;;;;;10.83;70.35;97210.00;4944494;28;20235;-78
2021/01/29 10:43:40;;;;;;;12.75;3.83;;;;;;;10.88;70.38;97206.88;4911324;29;20703;-79
2021/01/29 10:46:15;;;;;;;7.47;2.28;;;;;;;10.91;68.86;97217.34;4943705;28;20227;-81
2021/01/29 10:48:50;;;;;;;5.72;1.98;;;;;;;11.06;68.25;97210.47;4948612;29;20231;-81
2021/01/29 10:51:34;;;;;;;4.03;1.88;;;;;;;11.19;67.20;97205.56;4948938;28;20226;-80
2021/01/29 10:54:04;;;;;;;6.70;2.13;;;;;;;11.18;66.66;97210.09;4947788;29;20216;-79
2021/01/29 10:56:46;;;;;;;4.50;2.03;;;;;;;11.41;66.48;97216.75;4942325;28;20742;-78
2021/01/29 10:59:18;;;;;;;5.82;1.90;;;;;;;11.45;66.42;97214.59;4950608;28;20200;-79
2021/01/29 11:01:57;;;;;;;2.40;1.75;;;;;;;11.50;65.96;97215.00;4954555;28;20219;-80
2021/01/29 11:04:28;;;;;;;3.75;1.70;;;;;;;11.23;67.32;97217.75;4954466;29;20239;-80
2021/01/29 11:07:02;;;;;;;4.05;1.98;;;;;;;11.13;67.60;97216.94;4978747;28;20303;-81
2021/01/29 11:09:37;;;;;;;3.65;1.70;;;;;;;11.15;67.42;97223.00;4957130;28;20240;-79
2021/01/29 11:12:12;;;;;;;5.95;2.25;;;;;;;11.14;67.50;97234.75;4951214;28;20235;-81
2021/01/29 11:14:52;;;;;;;6.07;2.40;;;;;;;11.03;67.38;97218.81;4954946;28;20233;-80
2021/01/29 11:17:23;;;;;;;5.90;2.40;;;;;;;11.03;67.58;97221.50;4958816;28;20215;-81
2021/01/29 11:19:54;;;;;;;3.85;2.08;;;;;;;11.06;67.07;97232.81;4951063;29;20224;-81
2021/01/29 11:22:35;;;;;;;7.40;2.88;;;;;;;11.19;66.82;97232.47;4974479;28;20271;-80
2021/01/29 11:25:49;;;;;;;10.63;2.85;;;;;;;11.43;66.91;97213.91;4947095;28;20224;-81
2021/01/29 11:28:28;;;;;;;8.45;2.42;;;;;;;11.18;66.88;97230.78;4943509;28;20223;-80
2021/01/29 11:31:05;;;;;;;5.30;1.98;;;;;;;10.72;68.63;97234.38;4980677;28;20275;-77
2021/01/29 11:33:37;;;;;;;5.35;2.50;;;;;;;10.83;69.28;97236.91;4953182;28;20293;-78
2021/01/29 11:36:24;;;;;;;7.82;3.30;;;;;;;10.74;70.29;97232.38;4961103;28;21015;-80
2021/01/29 11:39:13;;;;;;;4.97;2.47;;;;;;;10.65;72.44;97233.28;4947332;28;20219;-80
2021/01/29 11:41:58;;;;;;;5.55;2.63;;;;;;;10.45;74.75;97241.53;4947926;28;20210;-82
2021/01/29 11:44:35;;;;;;;7.72;2.45;;;;;;;10.16;76.56;97238.06;4946229;28;20234;-83
2021/01/29 11:47:09;;;;;;;8.98;2.72;;;;;;;10.14;77.64;97237.38;4945568;28;20318;-80
2021/01/29 11:50:03;;;;;;;6.20;2.55;;;;;;;10.12;78.34;97236.66;4946805;29;20756;-82
2021/01/29 11:52:44;;;;;;;8.93;2.63;;;;;;;10.17;77.74;97223.66;4949876;28;20311;-82
2021/01/29 11:55:15;;;;;;;10.32;3.00;;;;;;;10.04;77.63;97223.97;4945967;28;20223;-83
2021/01/29 11:58:15;;;;;;;7.10;2.53;;;;;;;10.19;76.70;97216.28;4966164;28;20296;-83
2021/01/29 12:01:02;;;;;;;8.52;2.67;;;;;;;10.38;75.14;97213.56;4949206;28;20224;-82
2021/01/29 12:03:52;;;;;;;10.35;2.75;;;;;;;10.69;75.02;97206.97;4972823;28;20223;-81
2021/01/29 12:06:23;;;;;;;29.73;13.90;;;;;;;10.81;73.15;97203.94;4931501;28;20367;-83
2021/01/29 12:09:01;;;;;;;46.58;23.25;;;;;;;11.00;71.71;97211.91;4960307;28;20679;-82
2021/01/29 12:11:58;;;;;;;7.50;2.80;;;;;;;11.26;71.52;97201.28;4954993;28;20229;-82
2021/01/29 12:14:58;;;;;;;8.90;3.20;;;;;;;11.16;68.78;97200.47;4949468;28;21198;-81
2021/01/29 12:17:27;;;;;;;9.55;2.72;;;;;;;11.20;69.23;97191.97;4948635;28;20701;-82
2021/01/29 12:20:01;;;;;;;8.70;2.80;;;;;;;11.08;68.54;97200.38;4958807;28;20215;-82
2021/01/29 12:22:39;;;;;;;5.32;3.00;;;;;;;11.18;69.09;97203.88;4949658;28;20591;-82
2021/01/29 12:25:58;;;;;;;7.82;2.20;;;;;;;11.07;67.95;97210.31;4961296;28;20243;-82
2021/01/29 12:28:33;;;;;;;4.97;2.15;;;;;;;10.99;68.28;97193.25;4954768;28;20276;-82
2021/01/29 12:31:12;;;;;;;6.28;2.50;;;;;;;11.16;67.41;97195.09;4954994;28;20227;-81
2021/01/29 12:33:57;;;;;;;3.42;1.55;;;;;;;11.08;66.69;97192.31;4966100;28;20234;-82
2021/01/29 12:36:27;;;;;;;4.65;2.30;;;;;;;11.20;67.61;97196.50;4958775;28;20237;-83
2021/01/29 12:39:00;;;;;;;6.07;3.30;;;;;;;11.37;67.16;97209.16;4960784;28;20227;-82
2021/01/29 12:41:41;;;;;;;4.85;2.08;;;;;;;11.08;67.45;97214.69;4962571;28;20303;-83
2021/01/29 12:44:17;;;;;;;5.75;2.15;;;;;;;11.02;69.13;97203.69;4950489;28;20220;-81
2021/01/29 12:47:06;;;;;;;4.20;1.95;;;;;;;10.98;69.88;97205.81;4961115;28;20247;-81
2021/01/29 12:49:50;;;;;;;4.63;2.30;;;;;;;10.80;71.10;97199.53;4944466;28;20208;-81
2021/01/29 12:52:26;;;;;;;5.00;3.00;;;;;;;11.05;71.41;97192.63;4959875;28;20219;-82
2021/01/29 12:55:09;;;;;;;13.40;8.65;;;;;;;11.17;70.82;97188.75;4967972;28;20223;-82